Time;durP1;ratioP1;P1;durP2;ratioP2;P2;SDS_P1;SDS_P2;PMS_P1;PMS_P2;Temp;Humidity;BMP_temperature;BMP_pressure;BME280_temperature;BME280_humidity;BME280_pressure;Samples;Min_cycle;Max_cycle;Signal;HPM_P1;HPM_P2
2023/06/20 00:01:00;;;;;;;0.10;0.10;;;;;;;;;;5129136;27;20130;-47
2023/06/20 00:03:25;;;;;;;0.10;0.10;;;;;;;;;;5129477;28;20516;-46
2023/06/20 00:05:51;;;;;;;0.10;0.10;;;;;;;;;;5129514;27;20039;-46
2023/06/20 00:08:16;;;;;;;0.10;0.10;;;;;;;;;;5127177;28;20046;-46
2023/06/20 00:10:42;;;;;;;0.10;0.10;;;;;;;;;;5128480;27;20279;-47
2023/06/20 00:13:07;;;;;;;0.10;0.10;;;;;;;;;;5129281;28;20048;-47
2023/06/20 00:15:33;;;;;;;0.10;0.10;;;;;;;;;;5128559;27;20043;-48
2023/06/20 00:18:00;;;;;;;0.10;0.10;;;;;;;;;;5128485;27;20465;-48
2023/06/20 00:20:26;;;;;;;0.10;0.10;;;;;;;;;;5128629;27;20043;-47
2023/06/20 00:22:52;;;;;;;0.10;0.10;;;;;;;;;;5117444;27;20142;-48
2023/06/20 00:25:17;;;;;;;0.10;0.10;;;;;;;;;;5128570;28;20071;-47
2023/06/20 00:27:43;;;;;;;0.10;0.10;;;;;;;;;;5128472;28;20043;-46
2023/06/20 00:30:09;;;;;;;0.10;0.10;;;;;;;;;;5128004;28;20096;-47
2023/06/20 00:32:35;;;;;;;0.10;0.10;;;;;;;;;;5110541;28;20047;-47
2023/06/20 00:35:00;;;;;;;0.10;0.10;;;;;;;;;;5128166;27;20057;-46
2023/06/20 00:37:26;;;;;;;0.10;0.10;;;;;;;;;;5128095;27;20047;-47
2023/06/20 00:39:52;;;;;;;0.10;0.10;;;;;;;;;;5127723;27;20055;-47
2023/06/20 00:42:18;;;;;;;0.10;0.10;;;;;;;;;;5128196;28;20047;-46
2023/06/20 00:44:44;;;;;;;0.10;0.10;;;;;;;;;;5109905;28;20109;-46
2023/06/20 00:47:09;;;;;;;0.10;0.10;;;;;;;;;;5128345;28;20074;-46
2023/06/20 00:49:35;;;;;;;0.10;0.10;;;;;;;;;;5127584;27;20076;-46
2023/06/20 00:52:02;;;;;;;0.10;0.10;;;;;;;;;;5128233;28;20051;-47
2023/06/20 00:54:28;;;;;;;0.10;0.10;;;;;;;;;;5127680;28;20510;-47
2023/06/20 00:56:53;;;;;;;0.10;0.10;;;;;;;;;;5128288;27;20089;-46
2023/06/20 00:59:19;;;;;;;0.10;0.10;;;;;;;;;;5128480;27;20047;-46
2023/06/20 01:01:44;;;;;;;0.10;0.10;;;;;;;;;;5128531;27;20456;-47
2023/06/20 01:04:10;;;;;;;0.10;0.10;;;;;;;;;;5128073;28;20062;-46
2023/06/20 01:06:42;;;;;;;0.10;0.10;;;;;;;;;;5128815;27;20551;-47
2023/06/20 01:09:13;;;;;;;0.10;0.10;;;;;;;;;;5127549;27;20479;-46
2023/06/20 01:11:47;;;;;;;0.17;0.17;;;;;;;;;;5127633;27;20077;-47
2023/06/20 01:14:18;;;;;;;0.10;0.10;;;;;;;;;;5127523;28;20483;-47
2023/06/20 01:16:52;;;;;;;0.10;0.10;;;;;;;;;;5128210;28;20390;-47
2023/06/20 01:19:23;;;;;;;0.10;0.10;;;;;;;;;;5127435;27;20081;-47
2023/06/20 01:21:52;;;;;;;0.10;0.10;;;;;;;;;;5137114;27;20047;-47
2023/06/20 01:24:22;;;;;;;0.10;0.10;;;;;;;;;;5135362;27;20467;-46
2023/06/20 01:26:49;;;;;;;0.10;0.10;;;;;;;;;;5127550;28;20047;-46
2023/06/20 01:29:19;;;;;;;0.10;0.10;;;;;;;;;;5108972;28;20047;-49
2023/06/20 01:31:49;;;;;;;0.10;0.10;;;;;;;;;;5127337;28;20097;-47
2023/06/20 01:34:18;;;;;;;0.10;0.10;;;;;;;;;;5112696;28;20047;-46
2023/06/20 01:36:47;;;;;;;0.10;0.10;;;;;;;;;;5128091;28;20492;-47
2023/06/20 01:39:17;;;;;;;0.10;0.10;;;;;;;;;;5125805;28;20109;-47
2023/06/20 01:41:44;;;;;;;0.10;0.10;;;;;;;;;;5127115;27;20139;-48
2023/06/20 01:44:11;;;;;;;0.10;0.10;;;;;;;;;;5126997;28;20071;-47
2023/06/20 01:46:37;;;;;;;0.10;0.10;;;;;;;;;;5127425;27;20078;-47
2023/06/20 01:49:02;;;;;;;0.10;0.10;;;;;;;;;;5127390;27;20065;-47
2023/06/20 01:51:29;;;;;;;0.10;0.10;;;;;;;;;;5126452;28;20411;-48
2023/06/20 01:53:55;;;;;;;0.10;0.10;;;;;;;;;;5127392;28;20047;-47
2023/06/20 01:56:22;;;;;;;0.10;0.10;;;;;;;;;;5127710;27;20081;-47
2023/06/20 01:58:48;;;;;;;0.10;0.10;;;;;;;;;;5126862;27;20089;-47
2023/06/20 02:01:14;;;;;;;0.10;0.10;;;;;;;;;;5127417;27;20127;-47
2023/06/20 02:03:41;;;;;;;0.10;0.10;;;;;;;;;;5127431;28;20370;-46
2023/06/20 02:06:07;;;;;;;0.10;0.10;;;;;;;;;;5127312;27;20412;-46
2023/06/20 02:08:34;;;;;;;0.10;0.10;;;;;;;;;;5126758;27;20479;-47
2023/06/20 02:11:00;;;;;;;0.10;0.10;;;;;;;;;;5126166;27;20121;-46
2023/06/20 02:13:26;;;;;;;0.10;0.10;;;;;;;;;;5126894;28;20579;-52
2023/06/20 02:15:53;;;;;;;0.10;0.10;;;;;;;;;;5126281;27;20456;-49
2023/06/20 02:18:19;;;;;;;0.10;0.10;;;;;;;;;;5127268;27;20043;-52
2023/06/20 02:20:48;;;;;;;0.10;0.10;;;;;;;;;;5117951;27;20051;-50
2023/06/20 02:23:15;;;;;;;0.10;0.10;;;;;;;;;;5111044;28;20039;-51
2023/06/20 02:25:43;;;;;;;0.10;0.10;;;;;;;;;;5127665;27;20089;-51
2023/06/20 02:28:08;;;;;;;0.00;0.00;;;;;;;;;;5127105;27;20051;-51
2023/06/20 02:30:35;;;;;;;0.10;0.10;;;;;;;;;;5125349;27;20464;-51
2023/06/20 02:33:01;;;;;;;0.10;0.10;;;;;;;;;;5126856;28;20100;-51
2023/06/20 02:35:28;;;;;;;0.10;0.10;;;;;;;;;;5126799;27;20483;-51
2023/06/20 02:37:56;;;;;;;0.10;0.10;;;;;;;;;;5126389;27;20047;-52
2023/06/20 02:40:23;;;;;;;0.10;0.10;;;;;;;;;;5126100;27;20559;-50
2023/06/20 02:42:49;;;;;;;0.10;0.10;;;;;;;;;;5108777;28;20055;-51
2023/06/20 02:45:15;;;;;;;0.10;0.10;;;;;;;;;;5125824;28;20095;-51
2023/06/20 02:48:00;;;;;;;0.10;0.10;;;;;;;;;;5126421;27;20043;-50
2023/06/20 02:53:18;;;;;;;0.10;0.10;;;;;;;;;;5186036;27;20141;-49
2023/06/20 02:55:49;;;;;;;0.10;0.10;;;;;;;;;;5146570;27;20046;-49
2023/06/20 02:58:17;;;;;;;0.10;0.10;;;;;;;;;;5146801;27;20042;-49
2023/06/20 03:00:44;;;;;;;0.10;0.10;;;;;;;;;;5164736;27;20074;-49
2023/06/20 03:03:26;;;;;;;0.10;0.10;;;;;;;;;;5165687;27;20053;-48
2023/06/20 03:05:56;;;;;;;0.10;0.10;;;;;;;;;;5165169;27;20049;-49
2023/06/20 03:08:23;;;;;;;0.10;0.10;;;;;;;;;;5164967;27;20054;-47
2023/06/20 03:10:49;;;;;;;0.10;0.10;;;;;;;;;;5163916;27;20075;-48
2023/06/20 03:13:15;;;;;;;0.10;0.10;;;;;;;;;;5165231;27;20050;-48
2023/06/20 03:15:41;;;;;;;0.10;0.10;;;;;;;;;;5146376;27;20038;-49
2023/06/20 03:18:07;;;;;;;0.10;0.10;;;;;;;;;;5146527;27;20103;-49
2023/06/20 03:20:33;;;;;;;0.10;0.10;;;;;;;;;;5157538;27;20474;-48
2023/06/20 03:22:59;;;;;;;0.10;0.10;;;;;;;;;;5169625;27;20047;-49
2023/06/20 03:25:24;;;;;;;0.10;0.10;;;;;;;;;;5164460;27;20046;-49
2023/06/20 03:27:50;;;;;;;0.10;0.10;;;;;;;;;;5164777;27;20129;-48
2023/06/20 03:30:16;;;;;;;0.10;0.10;;;;;;;;;;5163865;27;20061;-48
2023/06/20 03:32:41;;;;;;;0.10;0.10;;;;;;;;;;5164954;27;20619;-49
2023/06/20 03:35:07;;;;;;;0.10;0.10;;;;;;;;;;5164613;27;20050;-48
2023/06/20 03:37:33;;;;;;;0.10;0.10;;;;;;;;;;5164485;27;20580;-47
2023/06/20 03:39:59;;;;;;;0.10;0.10;;;;;;;;;;5160602;27;20046;-49
2023/06/20 03:42:24;;;;;;;0.10;0.10;;;;;;;;;;5165316;27;20073;-47
2023/06/20 03:44:50;;;;;;;0.10;0.10;;;;;;;;;;5163172;27;20266;-47
2023/06/20 03:47:15;;;;;;;0.10;0.10;;;;;;;;;;5164054;27;20046;-49
2023/06/20 03:49:41;;;;;;;0.10;0.10;;;;;;;;;;5163595;27;20078;-49
2023/06/20 03:52:10;;;;;;;0.10;0.10;;;;;;;;;;5164498;27;20110;-48
2023/06/20 03:54:37;;;;;;;0.10;0.10;;;;;;;;;;5163643;27;20229;-48
2023/06/20 03:57:03;;;;;;;0.10;0.10;;;;;;;;;;5164785;27;20046;-48
2023/06/20 03:59:28;;;;;;;0.10;0.10;;;;;;;;;;5164735;27;20057;-48
2023/06/20 04:01:54;;;;;;;0.10;0.10;;;;;;;;;;5142265;27;20138;-48
2023/06/20 04:04:19;;;;;;;0.10;0.10;;;;;;;;;;5139298;27;20131;-48
2023/06/20 04:06:49;;;;;;;0.10;0.10;;;;;;;;;;5150349;27;20103;-48
2023/06/20 04:09:17;;;;;;;0.10;0.10;;;;;;;;;;5149915;27;20039;-49
2023/06/20 04:11:42;;;;;;;0.10;0.10;;;;;;;;;;5129002;27;20043;-49
2023/06/20 04:14:08;;;;;;;0.10;0.10;;;;;;;;;;5135445;27;20536;-49
2023/06/20 04:16:34;;;;;;;0.10;0.10;;;;;;;;;;5150502;27;20047;-47
2023/06/20 04:18:59;;;;;;;0.10;0.10;;;;;;;;;;5146198;27;20053;-49
2023/06/20 04:21:25;;;;;;;0.13;0.13;;;;;;;;;;5152042;27;20050;-48
2023/06/20 04:23:50;;;;;;;0.10;0.10;;;;;;;;;;5167546;27;20050;-49
2023/06/20 04:26:16;;;;;;;0.10;0.10;;;;;;;;;;5149595;27;20497;-48
2023/06/20 04:28:42;;;;;;;0.10;0.10;;;;;;;;;;5149802;27;20490;-50
2023/06/20 04:31:08;;;;;;;0.10;0.10;;;;;;;;;;5134873;27;20051;-47
2023/06/20 04:33:33;;;;;;;0.10;0.10;;;;;;;;;;5128832;27;20096;-47
2023/06/20 04:35:59;;;;;;;0.10;0.10;;;;;;;;;;5148440;27;20039;-49
2023/06/20 04:38:24;;;;;;;0.20;0.20;;;;;;;;;;5149450;27;20530;-47
2023/06/20 04:40:54;;;;;;;0.10;0.10;;;;;;;;;;5148678;27;20129;-48
2023/06/20 04:43:22;;;;;;;0.10;0.10;;;;;;;;;;5149998;27;20114;-47
2023/06/20 04:45:47;;;;;;;;;;;;;;;;;;5149740;27;20055;-46
2023/06/20 04:48:13;;;;;;;0.10;0.10;;;;;;;;;;5149216;27;19970;-48
2023/06/20 04:50:38;;;;;;;0.10;0.10;;;;;;;;;;5134100;27;20096;-48
2023/06/20 04:53:04;;;;;;;0.10;0.10;;;;;;;;;;5129070;28;20047;-49
2023/06/20 04:55:29;;;;;;;0.10;0.10;;;;;;;;;;5141222;27;20054;-49
2023/06/20 04:58:07;;;;;;;0.10;0.10;;;;;;;;;;5149933;27;20039;-51
2023/06/20 05:00:36;;;;;;;0.10;0.10;;;;;;;;;;5139364;27;20055;-47
2023/06/20 05:03:03;;;;;;;0.10;0.10;;;;;;;;;;5131422;27;20142;-51
2023/06/20 05:05:29;;;;;;;0.10;0.10;;;;;;;;;;5147270;27;20077;-52
2023/06/20 05:07:56;;;;;;;0.10;0.10;;;;;;;;;;5131578;27;20638;-48
2023/06/20 05:10:22;;;;;;;0.10;0.10;;;;;;;;;;5134130;27;20307;-48
2023/06/20 05:12:48;;;;;;;0.10;0.10;;;;;;;;;;5149083;27;20291;-46
2023/06/20 05:15:13;;;;;;;0.10;0.10;;;;;;;;;;5141513;27;20375;-47
2023/06/20 05:17:39;;;;;;;0.10;0.10;;;;;;;;;;5137630;27;20483;-50
2023/06/20 05:20:06;;;;;;;0.10;0.10;;;;;;;;;;5142472;27;20042;-50
2023/06/20 05:22:33;;;;;;;0.10;0.10;;;;;;;;;;5153210;27;20070;-50
2023/06/20 05:24:59;;;;;;;0.10;0.10;;;;;;;;;;5144850;27;20521;-51
2023/06/20 05:27:24;;;;;;;0.10;0.10;;;;;;;;;;5138504;27;20051;-48
2023/06/20 05:29:50;;;;;;;0.10;0.10;;;;;;;;;;5133669;27;20196;-47
2023/06/20 05:32:15;;;;;;;0.10;0.10;;;;;;;;;;5133661;27;20046;-47
2023/06/20 05:34:41;;;;;;;0.10;0.10;;;;;;;;;;5132217;27;20054;-51
2023/06/20 05:37:07;;;;;;;0.10;0.10;;;;;;;;;;5137594;27;20051;-51
2023/06/20 05:39:32;;;;;;;0.10;0.10;;;;;;;;;;5137212;27;20043;-47
2023/06/20 05:41:58;;;;;;;0.10;0.10;;;;;;;;;;5144885;27;20170;-52
2023/06/20 05:44:23;;;;;;;0.10;0.10;;;;;;;;;;5134574;27;20092;-51
2023/06/20 05:46:49;;;;;;;0.10;0.10;;;;;;;;;;5130051;27;20070;-51
2023/06/20 05:49:15;;;;;;;0.10;0.10;;;;;;;;;;5134238;27;20608;-50
2023/06/20 05:51:44;;;;;;;0.10;0.10;;;;;;;;;;5131177;27;20051;-47
2023/06/20 05:54:10;;;;;;;0.10;0.10;;;;;;;;;;5131562;27;20055;-50
2023/06/20 05:56:35;;;;;;;0.10;0.10;;;;;;;;;;5129347;27;20055;-50
2023/06/20 05:59:01;;;;;;;0.10;0.10;;;;;;;;;;5131775;27;20084;-50
2023/06/20 06:01:26;;;;;;;0.10;0.10;;;;;;;;;;5134198;27;20047;-51
2023/06/20 06:03:52;;;;;;;0.10;0.10;;;;;;;;;;5137421;27;20446;-53
2023/06/20 06:06:18;;;;;;;0.10;0.10;;;;;;;;;;5135391;27;20464;-50
2023/06/20 06:08:43;;;;;;;0.10;0.10;;;;;;;;;;5138377;27;20050;-50
2023/06/20 06:11:09;;;;;;;0.10;0.10;;;;;;;;;;5135924;27;20047;-50
2023/06/20 06:13:35;;;;;;;0.10;0.10;;;;;;;;;;5137212;27;20061;-54
2023/06/20 06:16:00;;;;;;;0.10;0.10;;;;;;;;;;5146496;27;20422;-51
2023/06/20 06:18:26;;;;;;;0.15;0.15;;;;;;;;;;5147272;27;20089;-51
2023/06/20 06:20:52;;;;;;;0.10;0.10;;;;;;;;;;5148619;27;20129;-49
2023/06/20 06:23:17;;;;;;;0.10;0.10;;;;;;;;;;5150553;27;20051;-51
2023/06/20 06:25:45;;;;;;;0.10;0.10;;;;;;;;;;5138040;27;20047;-51
2023/06/20 06:28:11;;;;;;;0.00;0.00;;;;;;;;;;5131763;27;20074;-51
2023/06/20 06:30:37;;;;;;;0.10;0.10;;;;;;;;;;5136411;27;20503;-49
2023/06/20 06:33:03;;;;;;;0.10;0.10;;;;;;;;;;5144282;27;20070;-52
2023/06/20 06:35:30;;;;;;;0.10;0.10;;;;;;;;;;5131083;27;20478;-52
2023/06/20 06:37:56;;;;;;;0.10;0.10;;;;;;;;;;5128035;27;20050;-51
2023/06/20 06:40:22;;;;;;;0.10;0.10;;;;;;;;;;5122873;27;20066;-51
2023/06/20 06:42:48;;;;;;;0.10;0.10;;;;;;;;;;5130018;27;20050;-51
2023/06/20 06:45:13;;;;;;;0.10;0.10;;;;;;;;;;5126866;27;20054;-50
2023/06/20 06:47:39;;;;;;;0.10;0.10;;;;;;;;;;5132991;27;20043;-54
2023/06/20 06:50:06;;;;;;;0.10;0.10;;;;;;;;;;5131925;27;20071;-54
2023/06/20 06:52:34;;;;;;;0.10;0.10;;;;;;;;;;5133432;27;20050;-54
2023/06/20 06:54:59;;;;;;;;;;;;;;;;;;5123272;27;20050;-53
2023/06/20 06:57:25;;;;;;;0.10;0.10;;;;;;;;;;5129428;27;19962;-53
2023/06/20 06:59:50;;;;;;;0.13;0.13;;;;;;;;;;5138934;27;20070;-54
2023/06/20 07:02:16;;;;;;;0.10;0.10;;;;;;;;;;5126964;27;20584;-52
2023/06/20 07:04:42;;;;;;;0.10;0.10;;;;;;;;;;5129142;27;20046;-54
2023/06/20 07:07:07;;;;;;;0.10;0.10;;;;;;;;;;5132452;27;20491;-54
2023/06/20 07:09:33;;;;;;;0.10;0.10;;;;;;;;;;5131641;27;20047;-53
2023/06/20 07:11:58;;;;;;;0.10;0.10;;;;;;;;;;5128560;27;20075;-53
2023/06/20 07:14:24;;;;;;;0.10;0.10;;;;;;;;;;5127255;27;20410;-54
2023/06/20 07:16:49;;;;;;;0.10;0.10;;;;;;;;;;5128442;27;20043;-54
2023/06/20 07:19:31;;;;;;;0.10;0.10;;;;;;;;;;5131315;27;20039;-52
2023/06/20 07:21:56;;;;;;;0.10;0.10;;;;;;;;;;5130959;27;20155;-54
2023/06/20 07:24:22;;;;;;;0.10;0.10;;;;;;;;;;5135620;27;20054;-52
2023/06/20 07:26:47;;;;;;;0.20;0.20;;;;;;;;;;5136363;27;20082;-53
2023/06/20 07:29:13;;;;;;;0.10;0.10;;;;;;;;;;5134306;27;20454;-53
2023/06/20 07:31:38;;;;;;;0.10;0.10;;;;;;;;;;5132981;27;20472;-54
2023/06/20 07:34:04;;;;;;;0.10;0.10;;;;;;;;;;5126556;27;20422;-53
2023/06/20 07:36:30;;;;;;;0.10;0.10;;;;;;;;;;5129801;27;20049;-53
2023/06/20 07:38:55;;;;;;;0.20;0.20;;;;;;;;;;5131805;27;20066;-52
2023/06/20 07:41:21;;;;;;;0.10;0.10;;;;;;;;;;5145041;27;20050;-53
2023/06/20 07:43:46;;;;;;;0.10;0.10;;;;;;;;;;5130290;27;20525;-54
2023/06/20 07:46:12;;;;;;;0.10;0.10;;;;;;;;;;5141947;27;20134;-56
2023/06/20 07:48:37;;;;;;;0.10;0.10;;;;;;;;;;5137167;27;20264;-49
2023/06/20 07:51:03;;;;;;;0.10;0.10;;;;;;;;;;5134163;27;20043;-50
2023/06/20 07:53:28;;;;;;;0.10;0.10;;;;;;;;;;5143981;27;20074;-51
2023/06/20 07:55:55;;;;;;;0.10;0.10;;;;;;;;;;5132802;27;20234;-51
2023/06/20 07:58:21;;;;;;;0.10;0.10;;;;;;;;;;5136241;27;20054;-52
2023/06/20 08:00:46;;;;;;;0.10;0.10;;;;;;;;;;5142151;27;20173;-50
2023/06/20 08:03:12;;;;;;;0.10;0.10;;;;;;;;;;5140812;27;20421;-52
2023/06/20 08:05:38;;;;;;;0.10;0.10;;;;;;;;;;5138734;27;20073;-50
2023/06/20 08:08:03;;;;;;;0.20;0.20;;;;;;;;;;5144125;27;20138;-51
2023/06/20 08:10:29;;;;;;;0.10;0.10;;;;;;;;;;5144059;27;20031;-51
2023/06/20 08:12:54;;;;;;;0.10;0.10;;;;;;;;;;5142661;27;20514;-50
2023/06/20 08:15:20;;;;;;;0.10;0.10;;;;;;;;;;5140739;27;20046;-51
2023/06/20 08:17:45;;;;;;;0.10;0.10;;;;;;;;;;5136396;27;20043;-52
2023/06/20 08:20:11;;;;;;;0.10;0.10;;;;;;;;;;5135737;27;20050;-49
2023/06/20 08:22:37;;;;;;;0.10;0.10;;;;;;;;;;5138998;27;20484;-51
2023/06/20 08:25:03;;;;;;;0.10;0.10;;;;;;;;;;5136336;27;20460;-48
2023/06/20 08:27:28;;;;;;;0.10;0.10;;;;;;;;;;5129812;27;20047;-51
2023/06/20 08:29:54;;;;;;;0.10;0.10;;;;;;;;;;5136561;27;20529;-52
2023/06/20 08:32:20;;;;;;;0.10;0.10;;;;;;;;;;5135013;27;20209;-50
2023/06/20 08:34:49;;;;;;;0.10;0.10;;;;;;;;;;5128893;27;20143;-51
2023/06/20 08:37:16;;;;;;;0.10;0.10;;;;;;;;;;5138612;27;20456;-49
2023/06/20 08:39:42;;;;;;;0.10;0.10;;;;;;;;;;5133619;27;20403;-51
2023/06/20 08:42:07;;;;;;;0.10;0.10;;;;;;;;;;5138891;27;20177;-49
2023/06/20 08:44:33;;;;;;;0.10;0.10;;;;;;;;;;5126574;27;20284;-51
2023/06/20 08:47:13;;;;;;;0.10;0.10;;;;;;;;;;5139503;27;20129;-50
2023/06/20 08:49:39;;;;;;;0.10;0.10;;;;;;;;;;5136355;27;20384;-55
2023/06/20 08:52:09;;;;;;;0.10;0.10;;;;;;;;;;5124012;27;20055;-55
2023/06/20 08:54:37;;;;;;;0.10;0.10;;;;;;;;;;5131700;27;20050;-49
2023/06/20 08:57:02;;;;;;;0.10;0.10;;;;;;;;;;5131255;27;20092;-51
2023/06/20 08:59:28;;;;;;;0.10;0.10;;;;;;;;;;5127422;27;20043;-50
2023/06/20 09:01:53;;;;;;;0.10;0.10;;;;;;;;;;5133109;27;20039;-51
2023/06/20 09:04:19;;;;;;;0.10;0.10;;;;;;;;;;5128751;27;20110;-51
2023/06/20 09:06:50;;;;;;;0.10;0.10;;;;;;;;;;5135551;27;20482;-50
2023/06/20 09:09:16;;;;;;;0.10;0.10;;;;;;;;;;5133737;27;20297;-51
2023/06/20 09:11:46;;;;;;;0.10;0.10;;;;;;;;;;5128479;27;20107;-51
2023/06/20 09:14:12;;;;;;;0.10;0.10;;;;;;;;;;5130623;27;20449;-52
2023/06/20 09:16:40;;;;;;;0.10;0.10;;;;;;;;;;5128920;27;20046;-51
2023/06/20 09:19:06;;;;;;;0.10;0.10;;;;;;;;;;5133683;27;20684;-59
2023/06/20 09:21:35;;;;;;;0.10;0.10;;;;;;;;;;5131340;27;20043;-50
2023/06/20 09:24:02;;;;;;;0.10;0.10;;;;;;;;;;5129434;27;20108;-52
2023/06/20 09:26:28;;;;;;;0.10;0.10;;;;;;;;;;5128356;27;20566;-47
2023/06/20 09:29:04;;;;;;;0.10;0.10;;;;;;;;;;5129953;27;20043;-51
2023/06/20 09:31:38;;;;;;;0.10;0.10;;;;;;;;;;5128926;27;20075;-51
2023/06/20 09:34:04;;;;;;;0.10;0.10;;;;;;;;;;5123557;27;20061;-49
2023/06/20 09:36:29;;;;;;;0.20;0.20;;;;;;;;;;5130347;27;20129;-50
2023/06/20 09:38:59;;;;;;;0.10;0.10;;;;;;;;;;5125834;27;20483;-49
2023/06/20 09:41:25;;;;;;;0.10;0.10;;;;;;;;;;5129412;27;20145;-50
2023/06/20 09:43:50;;;;;;;0.10;0.10;;;;;;;;;;5135971;27;20050;-51
2023/06/20 09:46:16;;;;;;;0.10;0.10;;;;;;;;;;5129103;27;20066;-51
2023/06/20 09:48:43;;;;;;;0.10;0.10;;;;;;;;;;5133574;27;20107;-48
2023/06/20 09:51:09;;;;;;;0.10;0.10;;;;;;;;;;5132026;27;20333;-50
2023/06/20 09:53:42;;;;;;;0.15;0.15;;;;;;;;;;5135044;27;20558;-51
2023/06/20 09:56:08;;;;;;;0.10;0.10;;;;;;;;;;5135896;27;20381;-49
2023/06/20 09:58:40;;;;;;;0.10;0.10;;;;;;;;;;5140668;27;20057;-49
2023/06/20 10:01:05;;;;;;;;;;;;;;;;;;5128358;27;20695;-55
2023/06/20 10:03:31;;;;;;;0.10;0.10;;;;;;;;;;5132393;27;19919;-48
2023/06/20 10:05:59;;;;;;;0.10;0.10;;;;;;;;;;5127056;27;20407;-47
2023/06/20 10:08:25;;;;;;;0.10;0.10;;;;;;;;;;5135711;27;20050;-50
2023/06/20 10:10:51;;;;;;;0.10;0.10;;;;;;;;;;5135582;27;20039;-48
2023/06/20 10:13:16;;;;;;;0.10;0.10;;;;;;;;;;5133213;27;20050;-51
2023/06/20 10:15:42;;;;;;;0.10;0.10;;;;;;;;;;5128704;27;20091;-51
2023/06/20 10:18:27;;;;;;;0.10;0.10;;;;;;;;;;5134121;27;20060;-48
2023/06/20 10:20:53;;;;;;;0.10;0.10;;;;;;;;;;5129114;27;20054;-51
2023/06/20 10:23:20;;;;;;;0.10;0.10;;;;;;;;;;5135579;27;20054;-50
2023/06/20 10:25:50;;;;;;;0.10;0.10;;;;;;;;;;5140181;27;20247;-47
2023/06/20 10:28:18;;;;;;;0.10;0.10;;;;;;;;;;5123008;27;20054;-49
2023/06/20 10:33:26;;;;;;;0.10;0.10;;;;;;;;;;5165994;27;20205;-46
2023/06/20 10:35:53;;;;;;;0.10;0.10;;;;;;;;;;5125017;27;20560;-52
2023/06/20 10:38:19;;;;;;;0.10;0.10;;;;;;;;;;5139265;27;20043;-51
2023/06/20 10:40:44;;;;;;;0.10;0.10;;;;;;;;;;5137351;27;20038;-51
2023/06/20 10:43:18;;;;;;;0.10;0.10;;;;;;;;;;5142525;27;20039;-51
2023/06/20 10:45:52;;;;;;;0.10;0.10;;;;;;;;;;5137155;27;20058;-51
2023/06/20 10:48:18;;;;;;;0.20;0.20;;;;;;;;;;5119057;27;20053;-51
2023/06/20 10:50:43;;;;;;;0.10;0.10;;;;;;;;;;5137971;27;20047;-55
2023/06/20 10:53:09;;;;;;;0.10;0.10;;;;;;;;;;5132925;27;20101;-50
2023/06/20 10:55:37;;;;;;;0.10;0.10;;;;;;;;;;5117198;27;20121;-51
2023/06/20 10:58:03;;;;;;;0.10;0.10;;;;;;;;;;5134617;27;20426;-51
2023/06/20 11:00:28;;;;;;;0.10;0.10;;;;;;;;;;5139275;27;20502;-51
2023/06/20 11:02:55;;;;;;;0.10;0.10;;;;;;;;;;5138051;27;20055;-52
2023/06/20 11:05:25;;;;;;;0.10;0.10;;;;;;;;;;5127903;27;20051;-51
2023/06/20 11:07:52;;;;;;;0.10;0.10;;;;;;;;;;5127205;27;20062;-48
2023/06/20 11:10:20;;;;;;;0.10;0.10;;;;;;;;;;5136239;27;20488;-51
2023/06/20 11:12:46;;;;;;;0.10;0.10;;;;;;;;;;5136555;27;20088;-51
2023/06/20 11:15:20;;;;;;;0.10;0.10;;;;;;;;;;5120361;27;20035;-51
2023/06/20 11:17:45;;;;;;;0.10;0.10;;;;;;;;;;5136385;27;20261;-51
2023/06/20 11:20:11;;;;;;;0.10;0.10;;;;;;;;;;5136293;27;20045;-50
2023/06/20 11:22:37;;;;;;;0.10;0.10;;;;;;;;;;5121804;27;20051;-49
2023/06/20 11:25:03;;;;;;;0.10;0.10;;;;;;;;;;5118706;28;20051;-51
2023/06/20 11:27:29;;;;;;;0.10;0.10;;;;;;;;;;5094672;28;20135;-49
2023/06/20 11:29:54;;;;;;;0.17;0.17;;;;;;;;;;5112759;27;20403;-50
2023/06/20 11:32:20;;;;;;;0.10;0.10;;;;;;;;;;5112299;27;20040;-50
2023/06/20 11:34:53;;;;;;;0.10;0.10;;;;;;;;;;5115829;27;20154;-51
2023/06/20 11:37:20;;;;;;;0.10;0.10;;;;;;;;;;5100419;27;20055;-49
2023/06/20 11:39:46;;;;;;;0.10;0.10;;;;;;;;;;5088945;28;20105;-50
2023/06/20 11:42:15;;;;;;;0.10;0.10;;;;;;;;;;5115075;27;20483;-48
2023/06/20 11:44:40;;;;;;;0.10;0.10;;;;;;;;;;5103986;28;20044;-50
2023/06/20 11:47:06;;;;;;;0.10;0.10;;;;;;;;;;5102498;28;20075;-51
2023/06/20 11:49:33;;;;;;;0.10;0.10;;;;;;;;;;5084173;28;20123;-49
2023/06/20 11:51:59;;;;;;;0.10;0.10;;;;;;;;;;5087999;28;20757;-50
2023/06/20 11:54:24;;;;;;;0.10;0.10;;;;;;;;;;5100100;28;20048;-50
2023/06/20 11:56:50;;;;;;;0.10;0.10;;;;;;;;;;5083771;28;20669;-51
2023/06/20 11:59:23;;;;;;;0.10;0.10;;;;;;;;;;5108894;28;20628;-51
2023/06/20 12:01:49;;;;;;;0.10;0.10;;;;;;;;;;5093907;28;20073;-49
2023/06/20 12:04:18;;;;;;;0.10;0.10;;;;;;;;;;5103992;28;20499;-52
2023/06/20 12:06:44;;;;;;;0.10;0.10;;;;;;;;;;5085290;28;20051;-51
2023/06/20 12:09:12;;;;;;;0.10;0.10;;;;;;;;;;5104513;28;20050;-50
2023/06/20 12:11:45;;;;;;;0.10;0.10;;;;;;;;;;5083261;28;20112;-55
2023/06/20 12:14:11;;;;;;;0.10;0.10;;;;;;;;;;5100501;28;20066;-58
2023/06/20 12:16:37;;;;;;;0.10;0.10;;;;;;;;;;5103502;28;20044;-57
2023/06/20 12:19:02;;;;;;;0.10;0.10;;;;;;;;;;5100865;28;20047;-51
2023/06/20 12:21:28;;;;;;;0.10;0.10;;;;;;;;;;5104617;28;20055;-48
2023/06/20 12:23:54;;;;;;;0.10;0.10;;;;;;;;;;5104062;28;20105;-52
2023/06/20 12:26:19;;;;;;;0.10;0.10;;;;;;;;;;5102364;28;20043;-50
2023/06/20 12:28:45;;;;;;;0.10;0.10;;;;;;;;;;5102400;28;20074;-48
2023/06/20 12:31:12;;;;;;;0.10;0.10;;;;;;;;;;5104479;28;20545;-50
2023/06/20 12:33:37;;;;;;;0.10;0.10;;;;;;;;;;5104726;28;20055;-49
2023/06/20 12:36:03;;;;;;;0.10;0.10;;;;;;;;;;5108108;28;20044;-47
2023/06/20 12:38:30;;;;;;;0.10;0.10;;;;;;;;;;5104526;28;20067;-47
2023/06/20 12:40:57;;;;;;;0.10;0.10;;;;;;;;;;5104541;28;20086;-47
2023/06/20 12:43:23;;;;;;;0.10;0.10;;;;;;;;;;5106376;28;20046;-47
2023/06/20 12:45:48;;;;;;;0.17;0.17;;;;;;;;;;5112204;28;20043;-52
2023/06/20 12:48:14;;;;;;;0.10;0.10;;;;;;;;;;5121528;28;20063;-51
2023/06/20 12:50:39;;;;;;;0.10;0.10;;;;;;;;;;5107314;28;20079;-51
2023/06/20 12:53:05;;;;;;;0.10;0.10;;;;;;;;;;5119230;28;20059;-51
2023/06/20 12:55:31;;;;;;;0.10;0.10;;;;;;;;;;5103448;28;20047;-48
2023/06/20 12:57:58;;;;;;;0.10;0.10;;;;;;;;;;5103782;28;20071;-49
2023/06/20 13:00:24;;;;;;;0.10;0.10;;;;;;;;;;5103055;28;20066;-51
2023/06/20 13:02:50;;;;;;;0.10;0.10;;;;;;;;;;5114920;28;20047;-51
2023/06/20 13:05:16;;;;;;;0.10;0.10;;;;;;;;;;5104821;28;20079;-49
2023/06/20 13:07:41;;;;;;;0.10;0.10;;;;;;;;;;5102875;28;20054;-48
2023/06/20 13:10:07;;;;;;;0.10;0.10;;;;;;;;;;5093523;28;20506;-51
2023/06/20 13:12:34;;;;;;;0.10;0.10;;;;;;;;;;5102723;28;20504;-51
2023/06/20 13:15:02;;;;;;;0.10;0.10;;;;;;;;;;5101838;28;20036;-47
2023/06/20 13:17:34;;;;;;;0.10;0.10;;;;;;;;;;5106346;28;20458;-46
2023/06/20 13:20:00;;;;;;;0.10;0.10;;;;;;;;;;5103433;28;20101;-50
2023/06/20 13:22:25;;;;;;;0.10;0.10;;;;;;;;;;5102324;28;20047;-49
2023/06/20 13:24:51;;;;;;;0.10;0.10;;;;;;;;;;5098434;28;20050;-50
2023/06/20 13:27:18;;;;;;;0.10;0.10;;;;;;;;;;5100233;28;20048;-50
2023/06/20 13:29:44;;;;;;;0.10;0.10;;;;;;;;;;5100630;28;20262;-52
2023/06/20 13:32:10;;;;;;;0.10;0.10;;;;;;;;;;5118394;28;20130;-47
2023/06/20 13:34:35;;;;;;;0.10;0.10;;;;;;;;;;5092478;28;20047;-50
2023/06/20 13:37:01;;;;;;;0.10;0.10;;;;;;;;;;5109139;28;20047;-50
2023/06/20 13:39:27;;;;;;;0.10;0.10;;;;;;;;;;5109364;28;20460;-50
2023/06/20 13:41:58;;;;;;;0.10;0.10;;;;;;;;;;5104481;28;20521;-47
2023/06/20 13:44:23;;;;;;;0.10;0.10;;;;;;;;;;5118359;28;20051;-48
2023/06/20 13:46:49;;;;;;;0.10;0.10;;;;;;;;;;5106963;28;20054;-48
2023/06/20 13:49:15;;;;;;;0.10;0.10;;;;;;;;;;5084254;28;20055;-47
2023/06/20 13:51:40;;;;;;;0.10;0.10;;;;;;;;;;5103559;28;20243;-50
2023/06/20 13:54:06;;;;;;;0.10;0.10;;;;;;;;;;5101995;28;20135;-50
2023/06/20 13:56:32;;;;;;;0.10;0.10;;;;;;;;;;5108644;28;20043;-47
2023/06/20 13:58:58;;;;;;;0.10;0.10;;;;;;;;;;5102498;28;20474;-49
2023/06/20 14:01:23;;;;;;;0.10;0.10;;;;;;;;;;5118776;28;20262;-49
2023/06/20 14:03:49;;;;;;;0.10;0.10;;;;;;;;;;5105191;28;20045;-48
2023/06/20 14:06:15;;;;;;;0.10;0.10;;;;;;;;;;5116697;27;20091;-49
2023/06/20 14:08:41;;;;;;;0.10;0.10;;;;;;;;;;5103903;28;20051;-49
2023/06/20 14:11:07;;;;;;;0.10;0.10;;;;;;;;;;5084804;28;20059;-48
2023/06/20 14:13:32;;;;;;;0.10;0.10;;;;;;;;;;5103115;28;20058;-48
2023/06/20 14:15:58;;;;;;;0.10;0.10;;;;;;;;;;5103079;28;20054;-48
2023/06/20 14:18:23;;;;;;;0.10;0.10;;;;;;;;;;5103851;28;20392;-48
2023/06/20 14:20:49;;;;;;;0.10;0.10;;;;;;;;;;5103276;28;20420;-48
2023/06/20 14:23:14;;;;;;;0.10;0.10;;;;;;;;;;5103719;28;20384;-47
2023/06/20 14:25:40;;;;;;;0.10;0.10;;;;;;;;;;5103839;28;20044;-48
2023/06/20 14:28:05;;;;;;;0.10;0.10;;;;;;;;;;5097909;28;20101;-52
2023/06/20 14:30:31;;;;;;;0.15;0.15;;;;;;;;;;5102158;28;20043;-53
2023/06/20 14:32:57;;;;;;;0.10;0.10;;;;;;;;;;5101869;28;20048;-50
2023/06/20 14:35:22;;;;;;;0.10;0.10;;;;;;;;;;5086725;28;20048;-52
2023/06/20 14:37:48;;;;;;;0.20;0.20;;;;;;;;;;5099109;28;20048;-52
2023/06/20 14:40:13;;;;;;;0.10;0.10;;;;;;;;;;5102861;28;20484;-49
2023/06/20 14:42:39;;;;;;;0.10;0.10;;;;;;;;;;5103690;28;20062;-48
2023/06/20 14:45:05;;;;;;;0.10;0.10;;;;;;;;;;5101927;28;20459;-48